sensor_id;sensor_type;location;lat;lon;timestamp;P1;durP1;ratioP1;P2;durP2;ratioP2
69573;SDS011;62840;52.366;5.980;2023-04-12T00:00:51;5.95;;;1.15;;
69573;SDS011;62840;52.366;5.980;2023-04-12T00:03:17;5.22;;;1.40;;
69573;SDS011;62840;52.366;5.980;2023-04-12T00:05:43;5.80;;;1.30;;
69573;SDS011;62840;52.366;5.980;2023-04-12T00:08:08;3.40;;;1.25;;
69573;SDS011;62840;52.366;5.980;2023-04-12T00:10:34;6.83;;;1.47;;
69573;SDS011;62840;52.366;5.980;2023-04-12T00:13:00;5.60;;;1.60;;
69573;SDS011;62840;52.366;5.980;2023-04-12T00:15:28;6.07;;;1.47;;
69573;SDS011;62840;52.366;5.980;2023-04-12T00:17:54;6.60;;;1.55;;
69573;SDS011;62840;52.366;5.980;2023-04-12T00:20:20;5.72;;;1.45;;
69573;SDS011;62840;52.366;5.980;2023-04-12T00:22:46;5.53;;;1.57;;
69573;SDS011;62840;52.366;5.980;2023-04-12T00:25:11;5.00;;;1.35;;
69573;SDS011;62840;52.366;5.980;2023-04-12T00:27:37;4.07;;;1.13;;
69573;SDS011;62840;52.366;5.980;2023-04-12T00:30:03;4.30;;;1.30;;
69573;SDS011;62840;52.366;5.980;2023-04-12T00:32:34;5.70;;;1.33;;
69573;SDS011;62840;52.366;5.980;2023-04-12T00:34:59;6.28;;;1.10;;
69573;SDS011;62840;52.366;5.980;2023-04-12T00:37:25;7.13;;;1.27;;
69573;SDS011;62840;52.366;5.980;2023-04-12T00:39:51;3.53;;;1.23;;
69573;SDS011;62840;52.366;5.980;2023-04-12T00:42:17;7.13;;;1.40;;
69573;SDS011;62840;52.366;5.980;2023-04-12T00:44:42;6.40;;;1.50;;
69573;SDS011;62840;52.366;5.980;2023-04-12T00:47:08;4.90;;;1.43;;
69573;SDS011;62840;52.366;5.980;2023-04-12T00:49:36;6.80;;;1.88;;
69573;SDS011;62840;52.366;5.980;2023-04-12T00:52:03;5.50;;;1.50;;
69573;SDS011;62840;52.366;5.980;2023-04-12T00:54:32;6.28;;;1.92;;
69573;SDS011;62840;52.366;5.980;2023-04-12T00:56:58;6.15;;;1.30;;
69573;SDS011;62840;52.366;5.980;2023-04-12T00:59:25;4.30;;;1.40;;
69573;SDS011;62840;52.366;5.980;2023-04-12T01:01:51;6.45;;;1.23;;
69573;SDS011;62840;52.366;5.980;2023-04-12T01:04:16;6.10;;;1.52;;
69573;SDS011;62840;52.366;5.980;2023-04-12T01:06:50;5.68;;;1.50;;
69573;SDS011;62840;52.366;5.980;2023-04-12T01:09:44;5.18;;;1.50;;
69573;SDS011;62840;52.366;5.980;2023-04-12T01:12:30;6.47;;;1.63;;
69573;SDS011;62840;52.366;5.980;2023-04-12T01:15:09;5.28;;;1.20;;
69573;SDS011;62840;52.366;5.980;2023-04-12T01:17:42;4.80;;;1.60;;
69573;SDS011;62840;52.366;5.980;2023-04-12T01:20:18;5.40;;;1.52;;
69573;SDS011;62840;52.366;5.980;2023-04-12T01:22:58;4.70;;;1.25;;
69573;SDS011;62840;52.366;5.980;2023-04-12T01:25:43;4.95;;;1.38;;
69573;SDS011;62840;52.366;5.980;2023-04-12T01:28:34;5.13;;;1.83;;
69573;SDS011;62840;52.366;5.980;2023-04-12T01:31:10;7.93;;;1.73;;
69573;SDS011;62840;52.366;5.980;2023-04-12T01:33:42;6.32;;;1.48;;
69573;SDS011;62840;52.366;5.980;2023-04-12T01:36:17;7.25;;;1.75;;
69573;SDS011;62840;52.366;5.980;2023-04-12T01:38:47;4.32;;;1.20;;
69573;SDS011;62840;52.366;5.980;2023-04-12T01:41:15;4.53;;;1.50;;
69573;SDS011;62840;52.366;5.980;2023-04-12T01:43:47;5.72;;;1.52;;
69573;SDS011;62840;52.366;5.980;2023-04-12T01:46:19;4.32;;;1.50;;
69573;SDS011;62840;52.366;5.980;2023-04-12T01:48:50;2.90;;;1.15;;
69573;SDS011;62840;52.366;5.980;2023-04-12T01:51:26;6.05;;;1.67;;
69573;SDS011;62840;52.366;5.980;2023-04-12T01:54:12;3.60;;;1.05;;
69573;SDS011;62840;52.366;5.980;2023-04-12T01:56:49;4.93;;;1.30;;
69573;SDS011;62840;52.366;5.980;2023-04-12T01:59:33;4.30;;;1.00;;
69573;SDS011;62840;52.366;5.980;2023-04-12T02:02:07;3.30;;;1.40;;
69573;SDS011;62840;52.366;5.980;2023-04-12T02:04:35;4.45;;;1.30;;
69573;SDS011;62840;52.366;5.980;2023-04-12T02:07:05;5.10;;;1.42;;
69573;SDS011;62840;52.366;5.980;2023-04-12T02:09:34;3.37;;;1.20;;
69573;SDS011;62840;52.366;5.980;2023-04-12T02:12:01;5.32;;;1.38;;
69573;SDS011;62840;52.366;5.980;2023-04-12T02:14:34;3.67;;;1.20;;
69573;SDS011;62840;52.366;5.980;2023-04-12T02:17:02;4.28;;;1.10;;
69573;SDS011;62840;52.366;5.980;2023-04-12T02:19:31;6.10;;;1.20;;
69573;SDS011;62840;52.366;5.980;2023-04-12T02:21:56;3.77;;;1.00;;
69573;SDS011;62840;52.366;5.980;2023-04-12T02:24:22;3.50;;;1.10;;
69573;SDS011;62840;52.366;5.980;2023-04-12T02:26:48;4.75;;;1.30;;
69573;SDS011;62840;52.366;5.980;2023-04-12T02:29:17;5.60;;;1.42;;
69573;SDS011;62840;52.366;5.980;2023-04-12T02:31:47;4.25;;;1.50;;
69573;SDS011;62840;52.366;5.980;2023-04-12T02:34:14;6.32;;;1.40;;
69573;SDS011;62840;52.366;5.980;2023-04-12T02:36:39;4.37;;;1.60;;
69573;SDS011;62840;52.366;5.980;2023-04-12T02:39:05;5.85;;;1.38;;
69573;SDS011;62840;52.366;5.980;2023-04-12T02:41:31;5.90;;;1.63;;
69573;SDS011;62840;52.366;5.980;2023-04-12T02:43:57;4.72;;;1.35;;
69573;SDS011;62840;52.366;5.980;2023-04-12T02:46:24;4.63;;;1.45;;
69573;SDS011;62840;52.366;5.980;2023-04-12T02:48:54;5.38;;;1.60;;
69573;SDS011;62840;52.366;5.980;2023-04-12T02:51:22;5.10;;;1.52;;
69573;SDS011;62840;52.366;5.980;2023-04-12T02:53:51;7.90;;;1.90;;
69573;SDS011;62840;52.366;5.980;2023-04-12T02:56:17;4.20;;;1.40;;
69573;SDS011;62840;52.366;5.980;2023-04-12T02:58:43;4.40;;;1.50;;
69573;SDS011;62840;52.366;5.980;2023-04-12T03:01:09;5.25;;;1.30;;
69573;SDS011;62840;52.366;5.980;2023-04-12T03:03:37;5.82;;;1.33;;
69573;SDS011;62840;52.366;5.980;2023-04-12T03:06:16;3.85;;;1.42;;
69573;SDS011;62840;52.366;5.980;2023-04-12T03:08:42;6.95;;;1.40;;
69573;SDS011;62840;52.366;5.980;2023-04-12T03:11:07;5.85;;;1.48;;
69573;SDS011;62840;52.366;5.980;2023-04-12T03:13:33;4.68;;;1.10;;
69573;SDS011;62840;52.366;5.980;2023-04-12T03:16:19;4.80;;;1.30;;
69573;SDS011;62840;52.366;5.980;2023-04-12T03:18:47;4.20;;;1.10;;
69573;SDS011;62840;52.366;5.980;2023-04-12T03:21:17;4.97;;;1.20;;
69573;SDS011;62840;52.366;5.980;2023-04-12T03:23:45;6.00;;;1.27;;
69573;SDS011;62840;52.366;5.980;2023-04-12T03:26:13;4.13;;;1.23;;
69573;SDS011;62840;52.366;5.980;2023-04-12T03:28:41;5.13;;;1.40;;
69573;SDS011;62840;52.366;5.980;2023-04-12T03:31:07;4.72;;;1.50;;
69573;SDS011;62840;52.366;5.980;2023-04-12T03:33:33;4.47;;;1.38;;
69573;SDS011;62840;52.366;5.980;2023-04-12T03:36:01;4.05;;;0.90;;
69573;SDS011;62840;52.366;5.980;2023-04-12T03:38:30;4.30;;;1.00;;
69573;SDS011;62840;52.366;5.980;2023-04-12T03:40:56;5.40;;;1.20;;
69573;SDS011;62840;52.366;5.980;2023-04-12T03:43:22;5.00;;;1.25;;
69573;SDS011;62840;52.366;5.980;2023-04-12T03:45:47;5.57;;;1.13;;
69573;SDS011;62840;52.366;5.980;2023-04-12T03:48:15;4.25;;;1.10;;
69573;SDS011;62840;52.366;5.980;2023-04-12T03:50:40;6.18;;;1.50;;
69573;SDS011;62840;52.366;5.980;2023-04-12T03:53:06;7.45;;;1.80;;
69573;SDS011;62840;52.366;5.980;2023-04-12T03:55:40;3.92;;;1.40;;
69573;SDS011;62840;52.366;5.980;2023-04-12T03:58:08;3.72;;;1.30;;
69573;SDS011;62840;52.366;5.980;2023-04-12T04:00:34;4.20;;;1.27;;
69573;SDS011;62840;52.366;5.980;2023-04-12T04:03:01;4.57;;;1.17;;
69573;SDS011;62840;52.366;5.980;2023-04-12T04:05:27;4.30;;;1.40;;
69573;SDS011;62840;52.366;5.980;2023-04-12T04:07:53;4.43;;;1.25;;
69573;SDS011;62840;52.366;5.980;2023-04-12T04:10:22;4.95;;;1.50;;
69573;SDS011;62840;52.366;5.980;2023-04-12T04:12:53;4.57;;;1.40;;
69573;SDS011;62840;52.366;5.980;2023-04-12T04:15:19;3.90;;;1.20;;
69573;SDS011;62840;52.366;5.980;2023-04-12T04:17:49;4.50;;;1.20;;
69573;SDS011;62840;52.366;5.980;2023-04-12T04:20:15;4.10;;;1.38;;
69573;SDS011;62840;52.366;5.980;2023-04-12T04:22:42;5.75;;;1.33;;
69573;SDS011;62840;52.366;5.980;2023-04-12T04:25:11;5.22;;;1.30;;
69573;SDS011;62840;52.366;5.980;2023-04-12T04:27:37;3.50;;;1.17;;
69573;SDS011;62840;52.366;5.980;2023-04-12T04:30:06;3.58;;;1.10;;
69573;SDS011;62840;52.366;5.980;2023-04-12T04:32:33;4.20;;;1.20;;
69573;SDS011;62840;52.366;5.980;2023-04-12T04:34:59;5.87;;;1.30;;
69573;SDS011;62840;52.366;5.980;2023-04-12T04:37:25;5.32;;;1.58;;
69573;SDS011;62840;52.366;5.980;2023-04-12T04:39:57;4.53;;;1.40;;
69573;SDS011;62840;52.366;5.980;2023-04-12T04:42:23;4.43;;;1.45;;
69573;SDS011;62840;52.366;5.980;2023-04-12T04:44:49;4.30;;;1.40;;
69573;SDS011;62840;52.366;5.980;2023-04-12T04:47:19;4.45;;;1.50;;
69573;SDS011;62840;52.366;5.980;2023-04-12T04:49:47;4.03;;;1.20;;
69573;SDS011;62840;52.366;5.980;2023-04-12T04:52:18;3.10;;;1.00;;
69573;SDS011;62840;52.366;5.980;2023-04-12T04:54:44;4.80;;;1.50;;
69573;SDS011;62840;52.366;5.980;2023-04-12T04:57:10;4.38;;;1.30;;
69573;SDS011;62840;52.366;5.980;2023-04-12T04:59:36;6.03;;;1.40;;
69573;SDS011;62840;52.366;5.980;2023-04-12T05:02:02;4.63;;;1.70;;
69573;SDS011;62840;52.366;5.980;2023-04-12T05:04:33;4.65;;;1.48;;
69573;SDS011;62840;52.366;5.980;2023-04-12T05:06:59;4.35;;;1.48;;
69573;SDS011;62840;52.366;5.980;2023-04-12T05:09:25;4.97;;;1.53;;
69573;SDS011;62840;52.366;5.980;2023-04-12T05:11:54;5.10;;;1.40;;
69573;SDS011;62840;52.366;5.980;2023-04-12T05:14:21;4.10;;;1.48;;
69573;SDS011;62840;52.366;5.980;2023-04-12T05:16:52;4.80;;;1.50;;
69573;SDS011;62840;52.366;5.980;2023-04-12T05:19:18;5.07;;;1.33;;
69573;SDS011;62840;52.366;5.980;2023-04-12T05:21:47;5.63;;;1.40;;
69573;SDS011;62840;52.366;5.980;2023-04-12T05:24:13;5.07;;;1.65;;
69573;SDS011;62840;52.366;5.980;2023-04-12T05:26:39;4.38;;;1.27;;
69573;SDS011;62840;52.366;5.980;2023-04-12T05:29:08;5.33;;;1.30;;
69573;SDS011;62840;52.366;5.980;2023-04-12T05:31:37;4.68;;;1.40;;
69573;SDS011;62840;52.366;5.980;2023-04-12T05:34:05;4.22;;;1.30;;
69573;SDS011;62840;52.366;5.980;2023-04-12T05:36:31;4.18;;;1.75;;
69573;SDS011;62840;52.366;5.980;2023-04-12T05:39:00;4.33;;;1.57;;
69573;SDS011;62840;52.366;5.980;2023-04-12T05:41:28;3.85;;;1.30;;
69573;SDS011;62840;52.366;5.980;2023-04-12T05:43:53;4.47;;;1.35;;
69573;SDS011;62840;52.366;5.980;2023-04-12T05:46:19;4.00;;;1.35;;
69573;SDS011;62840;52.366;5.980;2023-04-12T05:48:45;6.20;;;1.50;;
69573;SDS011;62840;52.366;5.980;2023-04-12T05:51:15;3.47;;;1.65;;
69573;SDS011;62840;52.366;5.980;2023-04-12T05:53:44;4.90;;;1.50;;
69573;SDS011;62840;52.366;5.980;2023-04-12T05:56:12;5.63;;;1.70;;
69573;SDS011;62840;52.366;5.980;2023-04-12T05:58:39;4.53;;;1.70;;
69573;SDS011;62840;52.366;5.980;2023-04-12T06:01:05;3.88;;;1.27;;
69573;SDS011;62840;52.366;5.980;2023-04-12T06:03:32;6.18;;;1.65;;
69573;SDS011;62840;52.366;5.980;2023-04-12T06:05:58;4.07;;;1.48;;
69573;SDS011;62840;52.366;5.980;2023-04-12T06:08:28;4.25;;;1.63;;
69573;SDS011;62840;52.366;5.980;2023-04-12T06:10:54;3.83;;;1.57;;
69573;SDS011;62840;52.366;5.980;2023-04-12T06:13:25;5.38;;;1.48;;
69573;SDS011;62840;52.366;5.980;2023-04-12T06:15:51;4.38;;;1.55;;
69573;SDS011;62840;52.366;5.980;2023-04-12T06:18:18;4.32;;;1.80;;
69573;SDS011;62840;52.366;5.980;2023-04-12T06:20:44;3.90;;;1.57;;
69573;SDS011;62840;52.366;5.980;2023-04-12T06:23:10;3.70;;;1.95;;
69573;SDS011;62840;52.366;5.980;2023-04-12T06:25:37;4.60;;;1.60;;
69573;SDS011;62840;52.366;5.980;2023-04-12T06:28:03;5.10;;;1.88;;
69573;SDS011;62840;52.366;5.980;2023-04-12T06:30:34;3.83;;;1.65;;
69573;SDS011;62840;52.366;5.980;2023-04-12T06:33:00;3.83;;;1.60;;
69573;SDS011;62840;52.366;5.980;2023-04-12T06:35:33;4.20;;;1.63;;
69573;SDS011;62840;52.366;5.980;2023-04-12T06:38:00;4.97;;;1.60;;
69573;SDS011;62840;52.366;5.980;2023-04-12T06:40:25;5.10;;;1.70;;
69573;SDS011;62840;52.366;5.980;2023-04-12T06:42:56;4.45;;;1.67;;
69573;SDS011;62840;52.366;5.980;2023-04-12T06:45:22;3.83;;;1.50;;
69573;SDS011;62840;52.366;5.980;2023-04-12T06:47:52;4.22;;;1.42;;
69573;SDS011;62840;52.366;5.980;2023-04-12T06:50:21;4.73;;;1.77;;
69573;SDS011;62840;52.366;5.980;2023-04-12T06:52:47;3.92;;;1.60;;
69573;SDS011;62840;52.366;5.980;2023-04-12T06:55:12;4.22;;;1.67;;
69573;SDS011;62840;52.366;5.980;2023-04-12T06:57:41;4.63;;;1.80;;
69573;SDS011;62840;52.366;5.980;2023-04-12T07:00:08;4.43;;;1.63;;
69573;SDS011;62840;52.366;5.980;2023-04-12T07:02:38;5.00;;;1.65;;
69573;SDS011;62840;52.366;5.980;2023-04-12T07:05:10;3.83;;;1.90;;
69573;SDS011;62840;52.366;5.980;2023-04-12T07:07:35;4.65;;;1.75;;
69573;SDS011;62840;52.366;5.980;2023-04-12T07:10:05;3.92;;;1.50;;
69573;SDS011;62840;52.366;5.980;2023-04-12T07:12:32;4.50;;;1.53;;
69573;SDS011;62840;52.366;5.980;2023-04-12T07:14:59;4.68;;;1.75;;
69573;SDS011;62840;52.366;5.980;2023-04-12T07:17:28;3.65;;;1.70;;
69573;SDS011;62840;52.366;5.980;2023-04-12T07:19:54;4.43;;;1.55;;
69573;SDS011;62840;52.366;5.980;2023-04-12T07:22:23;4.35;;;1.70;;
69573;SDS011;62840;52.366;5.980;2023-04-12T07:24:49;4.47;;;1.60;;
69573;SDS011;62840;52.366;5.980;2023-04-12T07:27:16;4.53;;;1.75;;
69573;SDS011;62840;52.366;5.980;2023-04-12T07:29:42;4.05;;;1.83;;
69573;SDS011;62840;52.366;5.980;2023-04-12T07:32:08;5.37;;;1.77;;
69573;SDS011;62840;52.366;5.980;2023-04-12T07:34:35;3.58;;;1.52;;
69573;SDS011;62840;52.366;5.980;2023-04-12T07:37:00;3.92;;;1.58;;
69573;SDS011;62840;52.366;5.980;2023-04-12T07:39:31;3.80;;;1.85;;
69573;SDS011;62840;52.366;5.980;2023-04-12T07:41:58;4.33;;;1.60;;
69573;SDS011;62840;52.366;5.980;2023-04-12T07:44:25;4.45;;;1.80;;
69573;SDS011;62840;52.366;5.980;2023-04-12T07:46:51;3.70;;;1.77;;
69573;SDS011;62840;52.366;5.980;2023-04-12T07:49:17;3.33;;;1.50;;
69573;SDS011;62840;52.366;5.980;2023-04-12T07:51:44;3.72;;;1.55;;
69573;SDS011;62840;52.366;5.980;2023-04-12T07:54:09;3.65;;;1.55;;
69573;SDS011;62840;52.366;5.980;2023-04-12T07:56:38;4.70;;;1.70;;
69573;SDS011;62840;52.366;5.980;2023-04-12T07:59:04;3.72;;;1.48;;
69573;SDS011;62840;52.366;5.980;2023-04-12T08:01:29;3.90;;;1.73;;
69573;SDS011;62840;52.366;5.980;2023-04-12T08:03:55;5.00;;;1.50;;
69573;SDS011;62840;52.366;5.980;2023-04-12T08:06:21;4.22;;;1.52;;
69573;SDS011;62840;52.366;5.980;2023-04-12T08:08:50;3.95;;;1.50;;
69573;SDS011;62840;52.366;5.980;2023-04-12T08:11:18;3.65;;;1.58;;
69573;SDS011;62840;52.366;5.980;2023-04-12T08:13:48;4.73;;;1.37;;
69573;SDS011;62840;52.366;5.980;2023-04-12T08:16:15;3.70;;;1.15;;
69573;SDS011;62840;52.366;5.980;2023-04-12T08:18:41;3.67;;;1.40;;
69573;SDS011;62840;52.366;5.980;2023-04-12T08:21:09;3.33;;;1.20;;
69573;SDS011;62840;52.366;5.980;2023-04-12T08:23:39;2.97;;;1.17;;
69573;SDS011;62840;52.366;5.980;2023-04-12T08:26:06;4.28;;;1.20;;
69573;SDS011;62840;52.366;5.980;2023-04-12T08:28:38;4.70;;;1.40;;
69573;SDS011;62840;52.366;5.980;2023-04-12T08:31:07;3.38;;;1.20;;
69573;SDS011;62840;52.366;5.980;2023-04-12T08:33:33;3.70;;;1.48;;
69573;SDS011;62840;52.366;5.980;2023-04-12T08:36:03;4.50;;;1.57;;
69573;SDS011;62840;52.366;5.980;2023-04-12T08:38:33;4.15;;;1.20;;
69573;SDS011;62840;52.366;5.980;2023-04-12T08:41:02;4.93;;;1.83;;
69573;SDS011;62840;52.366;5.980;2023-04-12T08:43:29;3.83;;;1.50;;
69573;SDS011;62840;52.366;5.980;2023-04-12T08:45:58;4.28;;;1.50;;
69573;SDS011;62840;52.366;5.980;2023-04-12T08:48:32;5.37;;;1.60;;
69573;SDS011;62840;52.366;5.980;2023-04-12T08:51:00;4.60;;;1.50;;
69573;SDS011;62840;52.366;5.980;2023-04-12T08:53:30;3.65;;;1.67;;
69573;SDS011;62840;52.366;5.980;2023-04-12T08:55:57;4.38;;;1.70;;
69573;SDS011;62840;52.366;5.980;2023-04-12T08:58:25;4.78;;;1.88;;
69573;SDS011;62840;52.366;5.980;2023-04-12T09:00:51;3.57;;;1.40;;
69573;SDS011;62840;52.366;5.980;2023-04-12T09:03:25;5.40;;;1.80;;
69573;SDS011;62840;52.366;5.980;2023-04-12T09:05:55;4.72;;;1.67;;
69573;SDS011;62840;52.366;5.980;2023-04-12T09:08:27;5.55;;;1.63;;
69573;SDS011;62840;52.366;5.980;2023-04-12T09:10:55;4.35;;;1.83;;
69573;SDS011;62840;52.366;5.980;2023-04-12T09:13:30;5.30;;;1.93;;
69573;SDS011;62840;52.366;5.980;2023-04-12T09:16:00;6.70;;;1.80;;
69573;SDS011;62840;52.366;5.980;2023-04-12T09:18:27;6.00;;;2.10;;
69573;SDS011;62840;52.366;5.980;2023-04-12T09:21:14;5.43;;;2.08;;
69573;SDS011;62840;52.366;5.980;2023-04-12T09:23:40;5.28;;;2.00;;
69573;SDS011;62840;52.366;5.980;2023-04-12T09:26:08;7.20;;;1.90;;
69573;SDS011;62840;52.366;5.980;2023-04-12T09:28:54;9.07;;;2.10;;
69573;SDS011;62840;52.366;5.980;2023-04-12T09:31:24;6.35;;;2.40;;
69573;SDS011;62840;52.366;5.980;2023-04-12T09:33:51;6.75;;;2.28;;
69573;SDS011;62840;52.366;5.980;2023-04-12T09:36:38;5.68;;;2.38;;
69573;SDS011;62840;52.366;5.980;2023-04-12T09:39:06;7.43;;;1.83;;
69573;SDS011;62840;52.366;5.980;2023-04-12T09:41:38;6.95;;;2.15;;
69573;SDS011;62840;52.366;5.980;2023-04-12T09:44:03;7.60;;;2.00;;
69573;SDS011;62840;52.366;5.980;2023-04-12T09:46:32;9.40;;;2.63;;
69573;SDS011;62840;52.366;5.980;2023-04-12T09:49:13;8.68;;;2.47;;
69573;SDS011;62840;52.366;5.980;2023-04-12T09:51:42;6.72;;;2.40;;
69573;SDS011;62840;52.366;5.980;2023-04-12T09:54:15;6.43;;;2.42;;
69573;SDS011;62840;52.366;5.980;2023-04-12T09:56:46;7.50;;;2.50;;
69573;SDS011;62840;52.366;5.980;2023-04-12T09:59:15;8.45;;;2.55;;
69573;SDS011;62840;52.366;5.980;2023-04-12T10:01:43;8.48;;;2.70;;
69573;SDS011;62840;52.366;5.980;2023-04-12T10:04:15;7.30;;;2.80;;
69573;SDS011;62840;52.366;5.980;2023-04-12T10:06:46;9.50;;;2.40;;
69573;SDS011;62840;52.366;5.980;2023-04-12T10:09:14;7.53;;;2.00;;
69573;SDS011;62840;52.366;5.980;2023-04-12T10:11:43;8.13;;;2.40;;
69573;SDS011;62840;52.366;5.980;2023-04-12T10:14:12;9.18;;;2.92;;
69573;SDS011;62840;52.366;5.980;2023-04-12T10:16:41;6.32;;;2.03;;
69573;SDS011;62840;52.366;5.980;2023-04-12T10:19:08;8.43;;;2.22;;
69573;SDS011;62840;52.366;5.980;2023-04-12T10:21:41;7.33;;;1.83;;
69573;SDS011;62840;52.366;5.980;2023-04-12T10:24:10;5.03;;;1.60;;
69573;SDS011;62840;52.366;5.980;2023-04-12T10:26:36;7.68;;;2.10;;
69573;SDS011;62840;52.366;5.980;2023-04-12T10:31:51;14.07;;;2.50;;
69573;SDS011;62840;52.366;5.980;2023-04-12T10:34:22;5.85;;;1.70;;
69573;SDS011;62840;52.366;5.980;2023-04-12T10:36:53;6.55;;;1.98;;
69573;SDS011;62840;52.366;5.980;2023-04-12T10:39:40;5.40;;;1.60;;
69573;SDS011;62840;52.366;5.980;2023-04-12T10:42:23;7.28;;;2.10;;
69573;SDS011;62840;52.366;5.980;2023-04-12T10:44:56;7.37;;;1.80;;
69573;SDS011;62840;52.366;5.980;2023-04-12T10:48:12;9.27;;;1.98;;
69573;SDS011;62840;52.366;5.980;2023-04-12T10:53:43;9.98;;;1.88;;
69573;SDS011;62840;52.366;5.980;2023-04-12T10:59:07;4.50;;;1.67;;
69573;SDS011;62840;52.366;5.980;2023-04-12T11:05:01;9.57;;;2.28;;
69573;SDS011;62840;52.366;5.980;2023-04-12T11:07:37;7.70;;;1.38;;
69573;SDS011;62840;52.366;5.980;2023-04-12T11:10:11;7.43;;;1.80;;
69573;SDS011;62840;52.366;5.980;2023-04-12T11:12:41;5.70;;;1.80;;
69573;SDS011;62840;52.366;5.980;2023-04-12T11:15:14;3.88;;;1.60;;
69573;SDS011;62840;52.366;5.980;2023-04-12T11:17:40;7.40;;;1.92;;
69573;SDS011;62840;52.366;5.980;2023-04-12T11:20:09;8.88;;;2.13;;
69573;SDS011;62840;52.366;5.980;2023-04-12T11:22:43;7.40;;;1.88;;
69573;SDS011;62840;52.366;5.980;2023-04-12T11:25:14;9.97;;;3.13;;
69573;SDS011;62840;52.366;5.980;2023-04-12T11:27:50;6.82;;;2.00;;
69573;SDS011;62840;52.366;5.980;2023-04-12T11:30:19;7.40;;;1.67;;
69573;SDS011;62840;52.366;5.980;2023-04-12T11:32:46;7.20;;;1.70;;
69573;SDS011;62840;52.366;5.980;2023-04-12T11:35:14;5.73;;;1.80;;
69573;SDS011;62840;52.366;5.980;2023-04-12T11:37:42;6.47;;;1.65;;
69573;SDS011;62840;52.366;5.980;2023-04-12T11:40:10;6.38;;;1.88;;
69573;SDS011;62840;52.366;5.980;2023-04-12T11:42:37;4.97;;;1.55;;
69573;SDS011;62840;52.366;5.980;2023-04-12T11:45:09;5.78;;;1.67;;
69573;SDS011;62840;52.366;5.980;2023-04-12T11:47:46;10.33;;;2.60;;
69573;SDS011;62840;52.366;5.980;2023-04-12T11:50:26;8.00;;;1.67;;
69573;SDS011;62840;52.366;5.980;2023-04-12T11:53:08;10.85;;;2.00;;
69573;SDS011;62840;52.366;5.980;2023-04-12T11:55:34;9.23;;;1.77;;
69573;SDS011;62840;52.366;5.980;2023-04-12T11:58:00;8.65;;;2.08;;
69573;SDS011;62840;52.366;5.980;2023-04-12T12:00:30;7.32;;;1.80;;
69573;SDS011;62840;52.366;5.980;2023-04-12T12:02:58;8.50;;;1.98;;
69573;SDS011;62840;52.366;5.980;2023-04-12T12:05:25;9.35;;;2.13;;
69573;SDS011;62840;52.366;5.980;2023-04-12T12:07:51;6.13;;;2.17;;
69573;SDS011;62840;52.366;5.980;2023-04-12T12:10:21;6.95;;;2.38;;
69573;SDS011;62840;52.366;5.980;2023-04-12T12:12:47;8.30;;;1.80;;
69573;SDS011;62840;52.366;5.980;2023-04-12T12:15:13;7.35;;;2.05;;
69573;SDS011;62840;52.366;5.980;2023-04-12T12:17:45;6.95;;;1.63;;
69573;SDS011;62840;52.366;5.980;2023-04-12T12:20:19;7.57;;;2.00;;
69573;SDS011;62840;52.366;5.980;2023-04-12T12:22:46;5.70;;;1.40;;
69573;SDS011;62840;52.366;5.980;2023-04-12T12:25:17;5.45;;;1.27;;
69573;SDS011;62840;52.366;5.980;2023-04-12T12:27:49;8.18;;;2.53;;
69573;SDS011;62840;52.366;5.980;2023-04-12T12:30:22;7.43;;;1.50;;
69573;SDS011;62840;52.366;5.980;2023-04-12T12:32:52;6.70;;;1.50;;
69573;SDS011;62840;52.366;5.980;2023-04-12T12:35:18;5.20;;;1.13;;
69573;SDS011;62840;52.366;5.980;2023-04-12T12:37:51;4.90;;;1.40;;
69573;SDS011;62840;52.366;5.980;2023-04-12T12:40:27;3.80;;;1.15;;
69573;SDS011;62840;52.366;5.980;2023-04-12T12:42:54;4.60;;;1.17;;
69573;SDS011;62840;52.366;5.980;2023-04-12T12:45:24;3.97;;;0.90;;
69573;SDS011;62840;52.366;5.980;2023-04-12T12:47:56;4.18;;;1.05;;
69573;SDS011;62840;52.366;5.980;2023-04-12T12:50:32;8.23;;;1.30;;
69573;SDS011;62840;52.366;5.980;2023-04-12T12:53:00;4.47;;;1.00;;
69573;SDS011;62840;52.366;5.980;2023-04-12T12:55:28;4.43;;;1.27;;
69573;SDS011;62840;52.366;5.980;2023-04-12T12:57:56;3.20;;;0.97;;
69573;SDS011;62840;52.366;5.980;2023-04-12T13:00:26;4.53;;;1.10;;
69573;SDS011;62840;52.366;5.980;2023-04-12T13:03:00;3.92;;;1.20;;
69573;SDS011;62840;52.366;5.980;2023-04-12T13:05:28;5.78;;;1.30;;
69573;SDS011;62840;52.366;5.980;2023-04-12T13:07:56;7.38;;;1.27;;
69573;SDS011;62840;52.366;5.980;2023-04-12T13:10:23;5.13;;;1.30;;
69573;SDS011;62840;52.366;5.980;2023-04-12T13:12:48;5.30;;;1.00;;
69573;SDS011;62840;52.366;5.980;2023-04-12T13:15:20;4.00;;;1.30;;
69573;SDS011;62840;52.366;5.980;2023-04-12T13:17:46;3.37;;;1.00;;
69573;SDS011;62840;52.366;5.980;2023-04-12T13:20:15;4.13;;;1.50;;
69573;SDS011;62840;52.366;5.980;2023-04-12T13:22:41;4.55;;;1.50;;
69573;SDS011;62840;52.366;5.980;2023-04-12T13:25:16;5.72;;;1.52;;
69573;SDS011;62840;52.366;5.980;2023-04-12T13:27:42;6.07;;;1.40;;
69573;SDS011;62840;52.366;5.980;2023-04-12T13:30:10;5.53;;;1.60;;
69573;SDS011;62840;52.366;5.980;2023-04-12T13:32:38;6.00;;;1.45;;
69573;SDS011;62840;52.366;5.980;2023-04-12T13:35:07;6.05;;;1.67;;
69573;SDS011;62840;52.366;5.980;2023-04-12T13:37:39;6.22;;;1.50;;
69573;SDS011;62840;52.366;5.980;2023-04-12T13:40:05;8.83;;;1.60;;
69573;SDS011;62840;52.366;5.980;2023-04-12T13:42:38;6.93;;;1.63;;
69573;SDS011;62840;52.366;5.980;2023-04-12T13:45:10;7.05;;;1.45;;
69573;SDS011;62840;52.366;5.980;2023-04-12T13:47:39;7.78;;;1.70;;
69573;SDS011;62840;52.366;5.980;2023-04-12T13:50:12;5.47;;;1.58;;
69573;SDS011;62840;52.366;5.980;2023-04-12T13:52:40;9.83;;;1.80;;
69573;SDS011;62840;52.366;5.980;2023-04-12T13:55:08;7.68;;;1.48;;
69573;SDS011;62840;52.366;5.980;2023-04-12T13:57:39;7.57;;;1.55;;
69573;SDS011;62840;52.366;5.980;2023-04-12T14:00:05;5.60;;;1.42;;
69573;SDS011;62840;52.366;5.980;2023-04-12T14:02:35;6.37;;;1.30;;
69573;SDS011;62840;52.366;5.980;2023-04-12T14:05:01;7.18;;;1.40;;
69573;SDS011;62840;52.366;5.980;2023-04-12T14:07:27;4.95;;;1.33;;
69573;SDS011;62840;52.366;5.980;2023-04-12T14:09:55;9.30;;;2.27;;
69573;SDS011;62840;52.366;5.980;2023-04-12T14:12:23;7.43;;;1.75;;
69573;SDS011;62840;52.366;5.980;2023-04-12T14:14:51;7.00;;;1.50;;
69573;SDS011;62840;52.366;5.980;2023-04-12T14:17:19;5.70;;;1.23;;
69573;SDS011;62840;52.366;5.980;2023-04-12T14:20:01;6.75;;;1.33;;
69573;SDS011;62840;52.366;5.980;2023-04-12T14:22:27;7.30;;;1.50;;
69573;SDS011;62840;52.366;5.980;2023-04-12T14:24:58;4.97;;;1.10;;
69573;SDS011;62840;52.366;5.980;2023-04-12T14:27:31;10.48;;;1.48;;
69573;SDS011;62840;52.366;5.980;2023-04-12T14:30:05;5.15;;;0.95;;
69573;SDS011;62840;52.366;5.980;2023-04-12T14:32:33;4.47;;;1.08;;
69573;SDS011;62840;52.366;5.980;2023-04-12T14:34:59;4.57;;;0.95;;
69573;SDS011;62840;52.366;5.980;2023-04-12T14:37:26;5.55;;;1.02;;
69573;SDS011;62840;52.366;5.980;2023-04-12T14:39:59;5.22;;;0.90;;
69573;SDS011;62840;52.366;5.980;2023-04-12T14:42:24;6.40;;;0.80;;
69573;SDS011;62840;52.366;5.980;2023-04-12T14:44:51;6.10;;;0.80;;
69573;SDS011;62840;52.366;5.980;2023-04-12T14:47:18;3.10;;;0.70;;
69573;SDS011;62840;52.366;5.980;2023-04-12T14:49:46;6.22;;;0.90;;
69573;SDS011;62840;52.366;5.980;2023-04-12T14:52:11;6.28;;;1.27;;
69573;SDS011;62840;52.366;5.980;2023-04-12T14:54:38;4.88;;;0.93;;
69573;SDS011;62840;52.366;5.980;2023-04-12T14:57:12;3.90;;;0.77;;
69573;SDS011;62840;52.366;5.980;2023-04-12T14:59:47;3.95;;;0.80;;
69573;SDS011;62840;52.366;5.980;2023-04-12T15:02:17;4.38;;;1.08;;
69573;SDS011;62840;52.366;5.980;2023-04-12T15:04:47;4.72;;;0.80;;
69573;SDS011;62840;52.366;5.980;2023-04-12T15:07:15;4.10;;;0.70;;
69573;SDS011;62840;52.366;5.980;2023-04-12T15:09:47;5.13;;;0.88;;
69573;SDS011;62840;52.366;5.980;2023-04-12T15:12:18;5.35;;;1.00;;